createdAt,value
2022-08-26T00:02:01.429Z,37.48
2022-08-26T00:04:29.070Z,37.63
2022-08-26T00:06:56.717Z,37.39
2022-08-26T00:09:25.929Z,37.47
2022-08-26T00:11:54.101Z,38.28
2022-08-26T00:14:28.302Z,38.38
2022-08-26T00:16:58.682Z,38.61
2022-08-26T00:19:25.928Z,39.64
2022-08-26T00:21:53.733Z,39.53
2022-08-26T00:24:21.347Z,39.71
2022-08-26T00:26:49.680Z,40.17
2022-08-26T00:29:17.830Z,40.46
2022-08-26T00:31:45.655Z,40.04
2022-08-26T00:34:13.981Z,39.72
2022-08-26T00:36:43.540Z,40.19
2022-08-26T00:39:11.380Z,39.57
2022-08-26T00:41:40.790Z,39.64
2022-08-26T00:44:10.619Z,39.94
2022-08-26T00:46:53.396Z,39.90
2022-08-26T00:49:40.296Z,39.64
2022-08-26T00:52:14.419Z,39.68
2022-08-26T00:54:53.329Z,39.65
2022-08-26T00:57:22.121Z,39.75
2022-08-26T00:59:54.490Z,39.98
2022-08-26T01:02:22.371Z,40.15
2022-08-26T01:05:00.286Z,40.60
2022-08-26T01:07:31.236Z,40.84
2022-08-26T01:10:06.400Z,40.89
2022-08-26T01:12:40.650Z,41.10
2022-08-26T01:15:20.049Z,41.06
2022-08-26T01:17:47.470Z,41.47
2022-08-26T01:20:36.496Z,41.27
2022-08-26T01:23:10.280Z,41.91
2022-08-26T01:25:43.557Z,41.82
2022-08-26T01:28:22.606Z,42.05
2022-08-26T01:30:52.801Z,41.92
2022-08-26T01:33:29.486Z,41.76
2022-08-26T01:35:56.706Z,41.63
2022-08-26T01:38:24.432Z,41.56
2022-08-26T01:40:54.525Z,42.55
2022-08-26T01:43:27.100Z,43.16
2022-08-26T01:45:56.533Z,43.43
2022-08-26T01:48:28.408Z,44.38
2022-08-26T01:50:56.894Z,44.95
2022-08-26T01:53:25.148Z,45.00
2022-08-26T01:55:56.808Z,44.89
2022-08-26T01:58:36.241Z,44.61
2022-08-26T02:01:03.859Z,44.19
2022-08-26T02:03:32.530Z,43.81
2022-08-26T02:06:09.237Z,43.68
2022-08-26T02:08:49.945Z,43.43
2022-08-26T02:11:18.554Z,43.65
2022-08-26T02:13:51.845Z,44.40
2022-08-26T02:16:25.771Z,44.87
2022-08-26T02:18:55.220Z,44.53
2022-08-26T02:21:22.509Z,44.58
2022-08-26T02:23:53.320Z,45.32
2022-08-26T02:26:26.892Z,45.43
2022-08-26T02:29:05.117Z,45.87
2022-08-26T02:31:35.108Z,46.15
2022-08-26T02:34:10.838Z,46.50
2022-08-26T02:36:39.094Z,46.49
2022-08-26T02:39:08.221Z,47.05
2022-08-26T02:41:35.912Z,46.96
2022-08-26T02:44:12.738Z,47.05
2022-08-26T02:46:40.681Z,46.93
2022-08-26T02:49:09.499Z,47.50
2022-08-26T02:51:38.243Z,47.45
2022-08-26T02:54:07.748Z,47.54
2022-08-26T02:56:35.308Z,47.96
2022-08-26T02:59:03.270Z,48.03
2022-08-26T03:01:34.276Z,48.46
2022-08-26T03:04:04.943Z,48.14
2022-08-26T03:06:33.217Z,48.07
2022-08-26T03:09:00.373Z,48.14
2022-08-26T03:11:30.935Z,48.50
2022-08-26T03:14:03.662Z,49.01
2022-08-26T03:16:34.992Z,49.04
2022-08-26T03:19:05.444Z,49.34
2022-08-26T03:21:34.240Z,49.23
2022-08-26T03:24:03.878Z,49.73
2022-08-26T03:26:31.542Z,49.65
2022-08-26T03:29:17.204Z,49.82
2022-08-26T03:31:45.109Z,49.89
2022-08-26T03:34:15.800Z,50.19
2022-08-26T03:36:43.360Z,50.45
2022-08-26T03:39:13.372Z,49.94
2022-08-26T03:41:43.902Z,50.08
2022-08-26T03:44:11.560Z,50.27
2022-08-26T03:46:39.645Z,50.53
2022-08-26T03:49:07.528Z,50.08
2022-08-26T03:51:38.631Z,49.54
2022-08-26T03:54:08.170Z,49.24
2022-08-26T03:56:36.301Z,48.89
2022-08-26T03:59:05.322Z,48.75
2022-08-26T04:01:35.515Z,48.52
2022-08-26T04:04:04.012Z,48.99
2022-08-26T04:06:38.951Z,49.02
2022-08-26T04:09:14.089Z,48.87
2022-08-26T04:11:44.844Z,49.77
2022-08-26T04:14:20.119Z,49.71
2022-08-26T04:16:48.443Z,49.36
2022-08-26T04:19:17.213Z,49.68
2022-08-26T04:21:46.934Z,49.44
2022-08-26T04:24:16.513Z,49.87
2022-08-26T04:26:45.157Z,49.89
2022-08-26T04:29:20.352Z,50.05
2022-08-26T04:31:47.791Z,50.56
2022-08-26T04:34:16.410Z,50.21
2022-08-26T04:36:44.398Z,49.33
2022-08-26T04:39:16.258Z,48.84
2022-08-26T04:41:44.503Z,48.98
2022-08-26T04:44:12.682Z,48.57
2022-08-26T04:46:43.877Z,48.28
2022-08-26T04:49:12.552Z,47.67
2022-08-26T04:51:40.326Z,47.69
2022-08-26T04:54:08.550Z,47.61
2022-08-26T04:56:39.069Z,47.31
2022-08-26T04:59:16.784Z,47.31
2022-08-26T05:01:52.011Z,47.25
2022-08-26T05:04:20.833Z,47.33
2022-08-26T05:06:49.119Z,47.08
2022-08-26T05:09:18.071Z,47.13
2022-08-26T05:11:45.968Z,47.04
2022-08-26T05:14:22.677Z,47.19
2022-08-26T05:16:50.678Z,47.46
2022-08-26T05:19:19.186Z,47.29
2022-08-26T05:21:48.113Z,46.88
2022-08-26T05:24:16.901Z,46.65
2022-08-26T05:26:44.904Z,46.45
2022-08-26T05:29:13.841Z,46.42
2022-08-26T05:31:41.158Z,46.41
2022-08-26T05:34:08.658Z,46.46
2022-08-26T05:36:37.095Z,45.84
2022-08-26T05:39:05.850Z,45.58
2022-08-26T05:41:38.403Z,45.36
2022-08-26T05:44:12.393Z,45.19
2022-08-26T05:46:40.829Z,45.03
2022-08-26T05:49:12.577Z,44.70
2022-08-26T05:51:44.696Z,44.95
2022-08-26T05:54:14.288Z,44.86
2022-08-26T05:56:52.564Z,44.80
2022-08-26T05:59:24.035Z,44.77
2022-08-26T06:01:54.073Z,44.70
2022-08-26T06:04:23.200Z,44.62
2022-08-26T06:06:53.899Z,44.71
2022-08-26T06:09:21.262Z,44.68
2022-08-26T06:11:48.625Z,43.97
2022-08-26T06:14:17.488Z,43.88
2022-08-26T06:16:45.686Z,43.90
2022-08-26T06:19:15.109Z,43.63
2022-08-26T06:21:45.997Z,44.40
2022-08-26T06:24:33.006Z,44.72
2022-08-26T06:27:04.786Z,44.21
2022-08-26T06:29:34.622Z,44.39
2022-08-26T06:32:04.359Z,44.46
2022-08-26T06:34:32.214Z,43.69
2022-08-26T06:37:05.553Z,43.58
2022-08-26T06:39:34.180Z,43.61
2022-08-26T06:42:02.736Z,43.55
2022-08-26T06:44:34.066Z,43.37
2022-08-26T06:47:01.312Z,43.43
2022-08-26T06:49:28.447Z,43.46
2022-08-26T06:51:59.141Z,43.28
2022-08-26T06:54:31.089Z,43.62
2022-08-26T06:56:58.914Z,43.86
2022-08-26T06:59:26.369Z,43.07
2022-08-26T07:01:54.396Z,42.93
2022-08-26T07:04:22.469Z,42.80
2022-08-26T07:06:52.315Z,43.06
2022-08-26T07:09:27.360Z,43.00
2022-08-26T07:11:56.217Z,42.99
2022-08-26T07:14:24.768Z,42.65
2022-08-26T07:16:51.897Z,42.21
2022-08-26T07:19:31.092Z,42.10
2022-08-26T07:22:03.341Z,42.43
2022-08-26T07:24:34.982Z,42.42
2022-08-26T07:27:16.887Z,41.10
2022-08-26T07:29:44.852Z,40.50
2022-08-26T07:32:15.260Z,40.87
2022-08-26T07:34:43.001Z,40.43
2022-08-26T07:37:11.638Z,40.05
2022-08-26T07:39:40.473Z,39.97
2022-08-26T07:42:10.414Z,40.74
2022-08-26T07:44:39.346Z,40.23
2022-08-26T07:47:19.385Z,40.32
2022-08-26T07:49:57.207Z,39.92
2022-08-26T07:52:29.970Z,40.27
2022-08-26T07:55:00.731Z,40.06
2022-08-26T07:57:29.879Z,39.91
2022-08-26T07:59:58.661Z,39.78
2022-08-26T08:02:28.104Z,39.99
2022-08-26T08:04:57.369Z,40.05
2022-08-26T08:07:25.886Z,39.49
2022-08-26T08:10:20.829Z,37.72
2022-08-26T08:12:49.285Z,37.83
2022-08-26T08:15:20.365Z,37.61
2022-08-26T08:17:48.045Z,37.39
2022-08-26T08:20:19.765Z,37.46
2022-08-26T08:22:47.746Z,37.26
2022-08-26T08:25:15.757Z,37.79
2022-08-26T08:27:48.209Z,36.39
2022-08-26T08:30:20.875Z,35.97
2022-08-26T08:32:51.924Z,35.52
2022-08-26T08:35:23.532Z,35.52
2022-08-26T08:37:53.929Z,36.05
2022-08-26T08:40:24.603Z,35.56
2022-08-26T08:43:07.403Z,35.17
2022-08-26T08:45:48.560Z,35.43
2022-08-26T08:48:32.964Z,35.54
2022-08-26T08:51:39.414Z,35.49
2022-08-26T08:54:08.692Z,34.82
2022-08-26T08:57:20.260Z,35.20
2022-08-26T09:00:08.789Z,35.28
2022-08-26T09:03:01.205Z,35.62
2022-08-26T09:05:39.712Z,34.99
2022-08-26T09:08:17.404Z,35.25
2022-08-26T09:10:54.026Z,35.26
2022-08-26T09:13:26.171Z,34.81
2022-08-26T09:15:59.970Z,34.68
2022-08-26T09:18:51.242Z,34.86
2022-08-26T09:21:23.638Z,35.49
2022-08-26T09:23:55.437Z,35.41
2022-08-26T09:26:40.560Z,35.16
2022-08-26T09:29:18.441Z,34.37
2022-08-26T09:31:45.794Z,34.57
2022-08-26T09:34:17.790Z,34.19
2022-08-26T09:36:50.877Z,34.48
2022-08-26T09:39:23.669Z,34.29
2022-08-26T09:42:23.153Z,33.78
2022-08-26T09:45:07.923Z,34.02
2022-08-26T09:47:47.056Z,34.10
2022-08-26T09:50:54.474Z,34.01
2022-08-26T09:53:28.698Z,34.02
2022-08-26T09:56:16.095Z,33.94
2022-08-26T09:58:47.043Z,33.73
2022-08-26T10:01:33.174Z,33.59
2022-08-26T10:04:32.902Z,33.38
2022-08-26T10:07:05.197Z,32.87
2022-08-26T10:09:38.596Z,33.00
2022-08-26T10:12:20.738Z,32.44
2022-08-26T10:14:55.950Z,33.15
2022-08-26T10:17:47.381Z,32.86
2022-08-26T10:20:23.169Z,32.37
2022-08-26T10:23:09.002Z,32.23
2022-08-26T10:25:53.265Z,32.47
2022-08-26T10:28:54.636Z,31.35
2022-08-26T10:31:40.172Z,30.77
2022-08-26T10:34:10.083Z,30.73
2022-08-26T10:37:14.917Z,30.50
2022-08-26T10:39:57.014Z,31.72
2022-08-26T10:42:47.688Z,30.91
2022-08-26T10:45:19.657Z,31.14
2022-08-26T10:48:04.012Z,30.20
2022-08-26T10:50:44.885Z,29.77
2022-08-26T10:53:25.185Z,29.41
2022-08-26T10:56:15.727Z,29.14
2022-08-26T10:59:32.913Z,27.68
2022-08-26T11:02:26.238Z,28.40
2022-08-26T11:05:03.079Z,29.09
2022-08-26T11:07:45.724Z,27.73
2022-08-26T11:10:22.697Z,28.00
2022-08-26T11:13:04.873Z,27.72
2022-08-26T11:15:31.964Z,26.51
2022-08-26T11:18:03.865Z,24.44
2022-08-26T11:20:42.368Z,24.51
2022-08-26T11:23:13.021Z,24.16
2022-08-26T11:26:01.028Z,24.42
2022-08-26T11:28:44.025Z,24.87
2022-08-26T11:31:38.834Z,24.88
2022-08-26T11:34:13.225Z,24.17
2022-08-26T11:37:21.583Z,23.45
2022-08-26T11:40:05.101Z,23.14
2022-08-26T11:42:57.153Z,23.25
2022-08-26T11:45:44.934Z,23.52
2022-08-26T11:48:37.465Z,23.23
2022-08-26T11:53:12.017Z,23.09
2022-08-26T11:55:44.413Z,22.57
2022-08-26T11:58:12.706Z,22.80
2022-08-26T12:00:46.339Z,23.11
2022-08-26T12:03:25.525Z,22.84
2022-08-26T12:05:53.866Z,22.85
2022-08-26T12:08:27.980Z,23.10
2022-08-26T12:11:09.038Z,22.25
2022-08-26T12:13:38.574Z,21.98
2022-08-26T12:16:06.962Z,22.17
2022-08-26T12:18:38.627Z,23.48
2022-08-26T12:21:24.316Z,22.75
2022-08-26T12:23:55.772Z,22.46
2022-08-26T12:26:36.516Z,22.86
2022-08-26T12:29:20.208Z,21.97
2022-08-26T12:32:17.219Z,21.62
2022-08-26T12:34:48.582Z,22.24
2022-08-26T12:37:16.129Z,22.08
2022-08-26T12:39:47.317Z,22.30
2022-08-26T12:42:17.314Z,21.78
2022-08-26T12:44:59.567Z,21.80
2022-08-26T12:47:43.936Z,21.81
2022-08-26T12:50:27.044Z,21.46
2022-08-26T12:53:10.145Z,21.53
2022-08-26T12:55:55.626Z,21.96
2022-08-26T12:58:33.062Z,21.68
2022-08-26T13:01:06.304Z,21.28
2022-08-26T13:03:33.419Z,21.01
2022-08-26T13:06:23.176Z,21.12
2022-08-26T13:09:00.152Z,21.05
2022-08-26T13:11:33.005Z,20.77
2022-08-26T13:14:09.836Z,20.62
2022-08-26T13:16:40.995Z,20.85
2022-08-26T13:19:12.901Z,21.16
2022-08-26T13:21:53.325Z,20.58
2022-08-26T13:24:25.610Z,20.48
2022-08-26T13:26:53.077Z,20.68
2022-08-26T13:29:20.672Z,21.27
2022-08-26T13:31:48.296Z,21.37
2022-08-26T13:34:19.691Z,21.17
2022-08-26T13:36:53.638Z,21.41
2022-08-26T13:39:22.414Z,21.19
2022-08-26T13:41:49.954Z,21.36
2022-08-26T13:44:18.140Z,21.63
2022-08-26T13:49:17.986Z,21.81
2022-08-26T13:51:45.257Z,21.99
2022-08-26T13:54:12.660Z,21.72
2022-08-26T13:56:40.337Z,21.90
2022-08-26T13:59:07.440Z,22.07
2022-08-26T14:01:35.880Z,22.01
2022-08-26T14:04:03.850Z,22.07
2022-08-26T14:06:31.598Z,21.83
2022-08-26T14:08:58.947Z,21.48
2022-08-26T14:11:26.811Z,21.48
2022-08-26T14:13:54.060Z,21.39
2022-08-26T14:16:32.754Z,21.47
2022-08-26T14:19:01.780Z,21.60
2022-08-26T14:21:31.403Z,21.34
2022-08-26T14:24:00.962Z,21.36
2022-08-26T14:26:29.909Z,21.58
2022-08-26T14:28:59.329Z,21.91
2022-08-26T14:31:29.349Z,22.14
2022-08-26T14:34:02.089Z,22.15
2022-08-26T14:36:31.970Z,22.83
2022-08-26T14:39:11.786Z,22.33
2022-08-26T14:41:46.048Z,22.28
2022-08-26T14:44:27.461Z,23.00
2022-08-26T14:46:55.339Z,22.27
2022-08-26T14:49:24.702Z,22.35
2022-08-26T14:51:51.953Z,22.24
2022-08-26T14:54:20.742Z,22.42
2022-08-26T14:56:53.637Z,22.33
2022-08-26T14:59:28.460Z,22.43
2022-08-26T15:01:57.040Z,22.96
2022-08-26T15:04:24.796Z,23.24
2022-08-26T15:06:54.385Z,23.40
2022-08-26T15:09:23.200Z,23.78
2022-08-26T15:11:52.297Z,24.74
2022-08-26T15:14:20.464Z,24.87
2022-08-26T15:16:51.501Z,25.08
2022-08-26T15:19:20.010Z,25.45
2022-08-26T15:21:47.610Z,25.62
2022-08-26T15:24:20.843Z,25.71
2022-08-26T15:26:49.113Z,26.10
2022-08-26T15:29:16.877Z,26.33
2022-08-26T15:31:44.113Z,26.39
2022-08-26T15:34:16.401Z,26.67
2022-08-26T15:36:46.824Z,26.97
2022-08-26T15:39:16.848Z,26.88
2022-08-26T15:41:44.812Z,26.94
2022-08-26T15:44:13.725Z,27.15
2022-08-26T15:46:41.575Z,26.98
2022-08-26T15:49:09.065Z,27.13
2022-08-26T15:51:47.444Z,27.50
2022-08-26T15:54:16.305Z,27.60
2022-08-26T15:56:44.973Z,27.85
2022-08-26T15:59:12.373Z,28.02
2022-08-26T16:01:40.244Z,28.23
2022-08-26T16:04:07.494Z,28.23
2022-08-26T16:06:38.430Z,28.06
2022-08-26T16:09:06.528Z,27.99
2022-08-26T16:11:37.543Z,28.10
2022-08-26T16:14:05.308Z,28.23
2022-08-26T16:16:32.981Z,28.59
2022-08-26T16:19:05.626Z,28.80
2022-08-26T16:21:35.234Z,28.83
2022-08-26T16:24:03.446Z,28.85
2022-08-26T16:26:34.770Z,28.92
2022-08-26T16:29:06.054Z,29.01
2022-08-26T16:31:35.272Z,29.31
2022-08-26T16:34:02.572Z,29.45
2022-08-26T16:36:29.939Z,29.62
2022-08-26T16:38:57.177Z,29.80
2022-08-26T16:41:28.316Z,29.72
2022-08-26T16:43:55.972Z,29.85
2022-08-26T16:46:25.220Z,29.95
2022-08-26T16:48:54.787Z,29.97
2022-08-26T16:51:26.469Z,30.28
2022-08-26T16:53:55.819Z,30.41
2022-08-26T16:56:34.081Z,30.56
2022-08-26T16:59:05.740Z,30.70
2022-08-26T17:01:33.155Z,30.80
2022-08-26T17:04:00.547Z,30.81
2022-08-26T17:06:27.979Z,31.08
2022-08-26T17:08:55.114Z,31.58
2022-08-26T17:11:22.577Z,31.73
2022-08-26T17:13:50.039Z,32.05
2022-08-26T17:16:17.323Z,32.20
2022-08-26T17:18:44.428Z,32.33
2022-08-26T17:21:13.239Z,32.35
2022-08-26T17:23:42.330Z,32.47
2022-08-26T17:26:11.854Z,32.49
2022-08-26T17:28:40.130Z,32.72
2022-08-26T17:31:11.927Z,32.91
2022-08-26T17:33:40.375Z,33.03
2022-08-26T17:36:08.953Z,33.20
2022-08-26T17:38:37.710Z,33.56
2022-08-26T17:41:13.666Z,33.42
2022-08-26T17:43:41.252Z,33.66
2022-08-26T17:46:11.108Z,33.52
2022-08-26T17:48:40.242Z,33.72
2022-08-26T17:51:16.333Z,33.61
2022-08-26T17:53:43.548Z,33.77
2022-08-26T17:56:13.303Z,33.74
2022-08-26T17:58:50.995Z,33.98
2022-08-26T18:01:25.617Z,34.35
2022-08-26T18:03:58.182Z,34.41
2022-08-26T18:06:30.011Z,34.41
2022-08-26T18:08:57.777Z,34.54
2022-08-26T18:11:25.021Z,34.72
2022-08-26T18:13:52.920Z,34.82
2022-08-26T18:16:20.995Z,34.87
2022-08-26T18:18:48.609Z,35.15
2022-08-26T18:21:18.901Z,34.70
2022-08-26T18:23:47.464Z,34.77
2022-08-26T18:26:24.890Z,34.98
2022-08-26T18:28:53.304Z,34.86
2022-08-26T18:31:21.070Z,35.09
2022-08-26T18:33:48.274Z,35.14
2022-08-26T18:36:36.974Z,35.07
2022-08-26T18:39:07.087Z,35.14
2022-08-26T18:41:44.346Z,35.21
2022-08-26T18:44:14.363Z,35.23
2022-08-26T18:46:42.856Z,35.58
2022-08-26T18:49:12.737Z,35.92
2022-08-26T18:51:41.364Z,35.95
2022-08-26T18:54:08.658Z,36.12
2022-08-26T18:56:37.854Z,36.41
2022-08-26T18:59:07.435Z,36.73
2022-08-26T19:01:36.830Z,36.97
2022-08-26T19:04:06.676Z,37.23
2022-08-26T19:06:35.694Z,37.19
2022-08-26T19:09:07.086Z,37.07
2022-08-26T19:11:41.715Z,37.29
2022-08-26T19:14:13.813Z,37.51
2022-08-26T19:16:48.150Z,37.68
2022-08-26T19:19:16.059Z,37.80
2022-08-26T19:21:43.816Z,37.64
2022-08-26T19:24:17.021Z,37.86
2022-08-26T19:26:51.422Z,37.97
2022-08-26T19:29:33.233Z,38.15
2022-08-26T19:32:01.795Z,38.29
2022-08-26T19:34:29.466Z,38.45
2022-08-26T19:36:58.162Z,38.80
2022-08-26T19:39:26.217Z,38.88
2022-08-26T19:41:53.480Z,38.92
2022-08-26T19:44:41.156Z,39.24
2022-08-26T19:47:11.646Z,39.25
2022-08-26T19:49:38.993Z,39.06
2022-08-26T19:52:07.984Z,39.11
2022-08-26T19:54:35.768Z,38.72
2022-08-26T19:57:03.571Z,38.70
2022-08-26T19:59:32.717Z,38.67
2022-08-26T20:02:01.355Z,38.43
2022-08-26T20:04:30.998Z,38.46
2022-08-26T20:07:00.768Z,37.98
2022-08-26T20:09:30.257Z,37.65
2022-08-26T20:11:58.273Z,37.29
2022-08-26T20:14:29.637Z,37.25
2022-08-26T20:16:57.180Z,36.82
2022-08-26T20:19:42.809Z,36.73
2022-08-26T20:22:11.821Z,36.63
2022-08-26T20:24:39.356Z,36.30
2022-08-26T20:27:07.899Z,36.28
2022-08-26T20:29:37.335Z,36.31
2022-08-26T20:32:07.351Z,36.37
2022-08-26T20:34:36.652Z,36.34
2022-08-26T20:37:04.196Z,36.16
2022-08-26T20:39:31.345Z,36.30
2022-08-26T20:41:58.901Z,36.13
2022-08-26T20:44:26.362Z,36.06
2022-08-26T20:46:54.832Z,36.10
2022-08-26T20:49:22.300Z,35.93
2022-08-26T20:51:52.529Z,36.41
2022-08-26T20:54:28.062Z,36.10
2022-08-26T20:56:57.763Z,36.18
2022-08-26T20:59:26.230Z,36.10
2022-08-26T21:01:53.815Z,36.27
2022-08-26T21:04:25.014Z,36.57
2022-08-26T21:06:54.053Z,36.68
2022-08-26T21:09:23.721Z,36.67
2022-08-26T21:11:52.224Z,36.70
2022-08-26T21:14:20.162Z,37.12
2022-08-26T21:16:47.317Z,36.93
2022-08-26T21:19:17.892Z,36.61
2022-08-26T21:21:47.799Z,36.84
2022-08-26T21:24:15.972Z,36.98
2022-08-26T21:26:43.337Z,37.38
2022-08-26T21:29:10.687Z,37.64
2022-08-26T21:31:42.290Z,37.64
2022-08-26T21:34:14.094Z,37.50
2022-08-26T21:36:41.352Z,37.72
2022-08-26T21:39:11.706Z,37.66
2022-08-26T21:41:42.719Z,38.11
2022-08-26T21:44:11.600Z,38.19
2022-08-26T21:46:38.639Z,38.12
2022-08-26T21:49:09.598Z,38.43
2022-08-26T21:51:41.277Z,38.27
2022-08-26T21:54:11.292Z,38.65
2022-08-26T21:56:46.168Z,38.82
2022-08-26T21:59:18.488Z,38.59
2022-08-26T22:01:47.128Z,38.47
2022-08-26T22:04:15.738Z,38.64
2022-08-26T22:06:48.273Z,38.70
2022-08-26T22:09:20.466Z,38.65
2022-08-26T22:11:48.622Z,38.76
2022-08-26T22:14:17.633Z,39.54
2022-08-26T22:16:50.559Z,38.97
2022-08-26T22:19:20.624Z,38.43
2022-08-26T22:21:53.181Z,38.57
2022-08-26T22:24:24.464Z,38.45
2022-08-26T22:26:52.218Z,38.48
2022-08-26T22:29:20.101Z,38.65
2022-08-26T22:31:47.490Z,38.66
2022-08-26T22:34:16.945Z,38.73
2022-08-26T22:36:47.822Z,38.69
2022-08-26T22:39:19.854Z,38.92
2022-08-26T22:41:48.031Z,38.92
2022-08-26T22:44:17.005Z,38.97
2022-08-26T22:46:44.782Z,38.95
2022-08-26T22:49:16.767Z,38.99
2022-08-26T22:51:45.632Z,39.02
2022-08-26T22:54:13.836Z,39.13
2022-08-26T22:56:41.600Z,39.28
2022-08-26T22:59:09.584Z,39.28
2022-08-26T23:01:40.290Z,39.38
2022-08-26T23:04:08.952Z,39.20
2022-08-26T23:06:39.527Z,39.16
2022-08-26T23:09:07.930Z,39.19
2022-08-26T23:11:35.538Z,39.43
2022-08-26T23:14:06.325Z,39.46
2022-08-26T23:16:39.226Z,39.55
2022-08-26T23:19:09.918Z,39.48
2022-08-26T23:21:38.369Z,39.35
2022-08-26T23:24:07.398Z,39.35
2022-08-26T23:26:35.331Z,39.47
2022-08-26T23:29:04.573Z,39.81
2022-08-26T23:31:32.271Z,39.55
2022-08-26T23:34:18.384Z,39.83
2022-08-26T23:36:45.765Z,40.24
2022-08-26T23:39:14.924Z,40.14
2022-08-26T23:41:42.487Z,40.12
2022-08-26T23:44:10.548Z,40.13
2022-08-26T23:46:38.197Z,40.10
2022-08-26T23:49:05.448Z,40.21
2022-08-26T23:51:51.253Z,40.59
2022-08-26T23:54:19.264Z,40.82
2022-08-26T23:56:46.997Z,40.69
2022-08-26T23:59:15.273Z,40.71
